Terminal Aerodrome Forecast
Issued by NWS

Home | Current Version | Previous Version | Text Only | Print | Product List | Glossary On
Versions: 1 2 3 4 5 6 7 8 9 10 11 12 13 14 15 16 17 18 19 20 21 22 23 24 25 26 27 28 29 30
000
FTPA31 PHFO 031700
TAFMDY
TAF
PMDY 031722Z 0318/0418 24006KT P6SM VCSH SCT025 BKN050
     FM040000 21006KT P6SM VCSH SCT025 BKN050
      TEMPO 0402/0406 3SM SHRA BR BKN025
     FM041000 34010KT P6SM VCSH SCT025 BKN040
     FM041600 01010KT P6SM SCT020 BKN035
      AMD LTD TO CLD AND WIND=

USA.gov is the U.S. government's official web portal to all federal, state and local government web resources and services.